createdAt,value
2024-01-06T00:01:44.773Z,99674.31
2024-01-06T00:04:13.010Z,99661.34
2024-01-06T00:06:40.688Z,99624.34
2024-01-06T00:09:08.679Z,99656.00
2024-01-06T00:11:36.557Z,99618.13
2024-01-06T00:14:04.201Z,99618.28
2024-01-06T00:16:31.744Z,99616.34
2024-01-06T00:19:01.012Z,99652.56
2024-01-06T00:21:28.624Z,99662.19
2024-01-06T00:23:57.236Z,99653.50
2024-01-06T00:26:28.343Z,99649.25
2024-01-06T00:28:55.955Z,99640.56
2024-01-06T00:31:23.621Z,99646.75
2024-01-06T00:33:51.794Z,99646.75
2024-01-06T00:36:19.463Z,99603.13
2024-01-06T00:38:47.066Z,99643.19
2024-01-06T00:41:15.943Z,99638.91
2024-01-06T00:43:43.678Z,99643.19
2024-01-06T00:46:11.356Z,99594.06
2024-01-06T00:48:39.404Z,99634.25
2024-01-06T00:51:07.286Z,99637.53
2024-01-06T00:53:34.914Z,99641.66
2024-01-06T00:56:02.857Z,99637.13
2024-01-06T00:58:30.407Z,99643.87
2024-01-06T01:00:58.132Z,99644.41
2024-01-06T01:03:26.514Z,99647.03
2024-01-06T01:05:54.450Z,99649.38
2024-01-06T01:08:22.379Z,99650.06
2024-01-06T01:10:50.597Z,99650.06
2024-01-06T01:13:18.534Z,99600.78
2024-01-06T01:15:46.604Z,99647.97
2024-01-06T01:18:15.103Z,99647.19
2024-01-06T01:20:43.154Z,99656.53
2024-01-06T01:23:10.881Z,99655.72
2024-01-06T01:25:39.822Z,99642.63
2024-01-06T01:28:07.733Z,99640.84
2024-01-06T01:30:35.606Z,99637.38
2024-01-06T01:33:04.112Z,99637.38
2024-01-06T01:35:31.971Z,99640.84
2024-01-06T01:37:59.769Z,99640.13
2024-01-06T01:40:27.888Z,99636.56
2024-01-06T01:42:55.800Z,99637.38
2024-01-06T01:45:23.672Z,99643.47
2024-01-06T01:47:52.399Z,99644.41
2024-01-06T01:50:21.511Z,99638.22
2024-01-06T01:52:49.687Z,99629.38
2024-01-06T01:55:17.737Z,99630.09
2024-01-06T01:57:45.500Z,99627.31
2024-01-06T02:00:14.075Z,99638.19
2024-01-06T02:02:41.979Z,99628.41
2024-01-06T02:05:09.594Z,99637.78
2024-01-06T02:07:37.477Z,99631.56
2024-01-06T02:10:05.766Z,99635.00
2024-01-06T02:12:33.643Z,99639.41
2024-01-06T02:15:01.577Z,99642.59
2024-01-06T02:17:29.288Z,99598.13
2024-01-06T02:19:57.912Z,99634.87
2024-01-06T02:22:25.955Z,99639.12
2024-01-06T02:24:54.491Z,99640.13
2024-01-06T02:27:22.265Z,99627.84
2024-01-06T02:29:50.388Z,99589.34
2024-01-06T02:32:18.262Z,99628.94
2024-01-06T02:34:46.004Z,99628.16
2024-01-06T02:37:14.194Z,99628.16
2024-01-06T02:39:42.013Z,99589.47
2024-01-06T02:42:09.856Z,99638.91
2024-01-06T02:44:38.010Z,99637.22
2024-01-06T02:47:06.297Z,99596.78
2024-01-06T02:49:34.358Z,99637.34
2024-01-06T02:52:02.521Z,99584.94
2024-01-06T02:54:30.195Z,99626.22
2024-01-06T02:56:58.007Z,99627.19
2024-01-06T02:59:26.105Z,99581.63
2024-01-06T03:01:53.735Z,99630.63
2024-01-06T03:04:21.484Z,99621.97
2024-01-06T03:06:53.666Z,99582.47
2024-01-06T03:09:21.389Z,99630.63
2024-01-06T03:11:49.438Z,99625.53
2024-01-06T03:14:17.044Z,99605.28
2024-01-06T03:16:44.580Z,99550.94
2024-01-06T03:19:12.551Z,99585.88
2024-01-06T03:21:40.243Z,99577.75
2024-01-06T03:24:10.330Z,99579.13
2024-01-06T03:26:38.324Z,99582.00
2024-01-06T03:29:06.152Z,99540.34
2024-01-06T03:31:34.066Z,99583.38
2024-01-06T03:34:02.272Z,99588.44
2024-01-06T03:36:29.987Z,99588.31
2024-01-06T03:38:57.621Z,99585.72
2024-01-06T03:41:25.777Z,99582.25
2024-01-06T03:43:53.535Z,99572.63
2024-01-06T03:46:21.191Z,99529.56
2024-01-06T03:48:49.456Z,99532.47
2024-01-06T03:51:17.447Z,99577.97
2024-01-06T03:53:45.184Z,99573.19
2024-01-06T03:56:14.650Z,99563.44
2024-01-06T03:58:42.248Z,99551.59
2024-01-06T04:01:09.846Z,99551.59
2024-01-06T04:03:37.834Z,99536.44
2024-01-06T04:06:05.606Z,99530.16
2024-01-06T04:08:33.278Z,99531.53
2024-01-06T04:11:01.230Z,99523.53
2024-01-06T04:13:29.572Z,99481.06
2024-01-06T04:15:57.157Z,99514.31
2024-01-06T04:18:25.101Z,99519.13
2024-01-06T04:20:52.832Z,99527.09
2024-01-06T04:23:22.225Z,99531.53
2024-01-06T04:25:50.848Z,99518.03
2024-01-06T04:28:18.865Z,99520.19
2024-01-06T04:30:46.494Z,99507.25
2024-01-06T04:33:14.874Z,99506.81
2024-01-06T04:35:42.631Z,99502.97
2024-01-06T04:38:10.497Z,99505.25
2024-01-06T04:40:38.639Z,99510.91
2024-01-06T04:43:06.548Z,99499.19
2024-01-06T04:45:34.202Z,99501.75
2024-01-06T04:48:02.413Z,99502.41
2024-01-06T04:50:30.162Z,99499.59
2024-01-06T04:52:58.726Z,99491.00
2024-01-06T04:55:26.774Z,99493.41
2024-01-06T04:57:54.580Z,99487.75
2024-01-06T05:00:22.399Z,99489.22
2024-01-06T05:02:50.742Z,99478.47
2024-01-06T05:05:18.823Z,99484.81
2024-01-06T05:07:46.683Z,99481.66
2024-01-06T05:10:14.826Z,99438.97
2024-01-06T05:12:42.634Z,99482.25
2024-01-06T05:15:10.695Z,99470.28
2024-01-06T05:17:38.930Z,99464.50
2024-01-06T05:20:07.876Z,99467.28
2024-01-06T05:22:36.193Z,99464.66
2024-01-06T05:25:04.635Z,99467.28
2024-01-06T05:27:32.338Z,99471.16
2024-01-06T05:29:59.954Z,99477.06
2024-01-06T05:32:28.140Z,99473.78
2024-01-06T05:34:56.051Z,99468.81
2024-01-06T05:37:23.743Z,99428.59
2024-01-06T05:39:51.744Z,99473.22
2024-01-06T05:42:19.391Z,99472.72
2024-01-06T05:44:46.995Z,99475.34
2024-01-06T05:47:14.856Z,99470.09
2024-01-06T05:49:44.514Z,99473.69
2024-01-06T05:52:12.274Z,99478.94
2024-01-06T05:54:43.842Z,99481.84
2024-01-06T05:57:11.903Z,99469.84
2024-01-06T05:59:40.443Z,99463.66
2024-01-06T06:02:08.197Z,99471.34
2024-01-06T06:04:37.141Z,99464.34
2024-01-06T06:07:05.192Z,99465.28
2024-01-06T06:09:35.746Z,99461.56
2024-01-06T06:12:04.363Z,99464.47
2024-01-06T06:14:32.196Z,99454.59
2024-01-06T06:16:59.903Z,99457.59
2024-01-06T06:19:27.873Z,99456.91
2024-01-06T06:21:55.690Z,99457.72
2024-01-06T06:24:23.496Z,99469.03
2024-01-06T06:26:51.577Z,99423.72
2024-01-06T06:29:19.181Z,99467.53
2024-01-06T06:31:47.943Z,99436.59
2024-01-06T06:34:16.141Z,99472.94
2024-01-06T06:36:43.967Z,99469.31
2024-01-06T06:39:11.752Z,99469.31
2024-01-06T06:41:39.714Z,99464.75
2024-01-06T06:44:07.289Z,99430.56
2024-01-06T06:46:34.993Z,99470.31
2024-01-06T06:49:03.693Z,99457.22
2024-01-06T06:51:31.729Z,99460.78
2024-01-06T06:53:59.944Z,99449.25
2024-01-06T06:56:27.817Z,99456.69
2024-01-06T06:58:55.626Z,99450.63
2024-01-06T07:01:23.230Z,99455.41
2024-01-06T07:03:51.348Z,99453.31
2024-01-06T07:06:18.901Z,99450.56
2024-01-06T07:08:46.565Z,99450.56
2024-01-06T07:11:16.245Z,99442.47
2024-01-06T07:13:43.862Z,99418.72
2024-01-06T07:16:18.338Z,99445.00
2024-01-06T07:18:47.809Z,99443.91
2024-01-06T07:21:15.606Z,99455.72
2024-01-06T07:23:43.797Z,99450.50
2024-01-06T07:26:11.808Z,99410.56
2024-01-06T07:28:39.490Z,99457.22
2024-01-06T07:31:07.676Z,99460.53
2024-01-06T07:33:35.805Z,99465.50
2024-01-06T07:36:03.548Z,99437.84
2024-01-06T07:38:32.306Z,99463.25
2024-01-06T07:41:00.366Z,99456.22
2024-01-06T07:43:27.954Z,99458.38
2024-01-06T07:45:55.844Z,99457.41
2024-01-06T07:48:24.091Z,99457.63
2024-01-06T07:50:51.805Z,99452.78
2024-01-06T07:53:19.440Z,99416.22
2024-01-06T07:55:47.294Z,99455.88
2024-01-06T07:58:14.891Z,99453.63
2024-01-06T08:03:10.272Z,99456.69
2024-01-06T08:05:38.745Z,99464.78
2024-01-06T08:08:06.789Z,99459.87
2024-01-06T08:10:34.671Z,99458.47
2024-01-06T08:13:02.272Z,99467.37
2024-01-06T08:15:29.828Z,99465.41
2024-01-06T08:17:57.796Z,99417.44
2024-01-06T08:20:25.402Z,99425.81
2024-01-06T08:22:52.961Z,99462.09
2024-01-06T08:25:20.822Z,99459.00
2024-01-06T08:27:48.847Z,99457.56
2024-01-06T08:30:16.902Z,99464.81
2024-01-06T08:32:44.953Z,99422.91
2024-01-06T08:35:12.746Z,99463.44
2024-01-06T08:37:40.232Z,99460.84
2024-01-06T08:40:09.258Z,99453.03
2024-01-06T08:42:37.094Z,99451.94
2024-01-06T08:45:06.151Z,99455.56
2024-01-06T08:47:34.051Z,99451.97
2024-01-06T08:50:01.815Z,99454.50
2024-01-06T08:52:29.602Z,99449.25
2024-01-06T08:54:57.578Z,99446.00
2024-01-06T08:57:25.086Z,99446.00
2024-01-06T08:59:52.655Z,99445.37
2024-01-06T09:02:20.500Z,99449.00
2024-01-06T09:04:48.025Z,99410.19
2024-01-06T09:07:15.754Z,99451.84
2024-01-06T09:09:44.066Z,99403.66
2024-01-06T09:12:11.824Z,99448.44
2024-01-06T09:14:39.434Z,99444.97
2024-01-06T09:17:07.516Z,99441.19
2024-01-06T09:19:35.553Z,99440.53
2024-01-06T09:22:03.248Z,99450.41
2024-01-06T09:24:31.158Z,99443.31
2024-01-06T09:26:58.720Z,99410.94
2024-01-06T09:29:26.276Z,99437.87
2024-01-06T09:31:54.126Z,99402.34
2024-01-06T09:34:21.997Z,99399.69
2024-01-06T09:36:49.715Z,99444.37
2024-01-06T09:39:18.259Z,99425.75
2024-01-06T09:41:45.870Z,99415.84
2024-01-06T09:44:16.801Z,99395.97
2024-01-06T09:46:45.709Z,99428.78
2024-01-06T09:49:14.785Z,99422.50
2024-01-06T09:51:42.415Z,99416.88
2024-01-06T09:54:13.299Z,99416.28
2024-01-06T09:56:41.350Z,99410.94
2024-01-06T09:59:08.858Z,99371.53
2024-01-06T10:01:37.456Z,99405.97
2024-01-06T10:04:05.536Z,99364.91
2024-01-06T10:06:34.204Z,99404.47
2024-01-06T10:09:01.867Z,99400.66
2024-01-06T10:11:29.692Z,99404.16
2024-01-06T10:13:57.241Z,99354.88
2024-01-06T10:16:24.778Z,99395.41
2024-01-06T10:18:54.602Z,99392.97
2024-01-06T10:21:23.930Z,99376.87
2024-01-06T10:23:52.583Z,99382.00
2024-01-06T10:26:20.407Z,99335.22
2024-01-06T10:28:50.725Z,99372.84
2024-01-06T10:31:19.269Z,99365.97
2024-01-06T10:33:47.882Z,99378.03
2024-01-06T10:36:17.121Z,99369.22
2024-01-06T10:38:46.502Z,99360.00
2024-01-06T10:41:16.480Z,99323.03
2024-01-06T10:43:45.575Z,99357.88
2024-01-06T10:46:15.406Z,99352.09
2024-01-06T10:48:45.082Z,99345.66
2024-01-06T10:51:15.473Z,99337.56
2024-01-06T10:53:44.477Z,99334.94
2024-01-06T10:56:12.339Z,99347.22
2024-01-06T10:58:48.220Z,99344.69
2024-01-06T11:01:21.441Z,99338.84
2024-01-06T11:03:50.964Z,99341.75
2024-01-06T11:06:20.063Z,99299.69
2024-01-06T11:09:25.722Z,99332.84
2024-01-06T11:11:54.691Z,99333.03
2024-01-06T11:14:27.320Z,99286.03
2024-01-06T11:16:56.325Z,99308.25
2024-01-06T11:19:43.286Z,99306.44
2024-01-06T11:22:33.602Z,99312.38
2024-01-06T11:25:22.143Z,99300.81
2024-01-06T11:27:51.298Z,99291.69
2024-01-06T11:30:27.259Z,99293.41
2024-01-06T11:33:00.160Z,99290.97
2024-01-06T11:35:28.922Z,99289.78
2024-01-06T11:38:01.302Z,99277.56
2024-01-06T11:40:33.973Z,99273.09
2024-01-06T11:43:17.716Z,99276.47
2024-01-06T11:45:45.661Z,99260.56
2024-01-06T11:48:14.635Z,99263.91
2024-01-06T11:50:42.787Z,99264.91
2024-01-06T11:53:13.380Z,99256.91
2024-01-06T11:55:41.590Z,99232.53
2024-01-06T11:58:09.283Z,99265.91
2024-01-06T12:00:41.772Z,99267.28
2024-01-06T12:03:10.250Z,99259.94
2024-01-06T12:05:37.801Z,99274.66
2024-01-06T12:08:09.232Z,99231.28
2024-01-06T12:10:38.415Z,99261.37
2024-01-06T12:13:11.170Z,99258.84
2024-01-06T12:15:41.096Z,99253.28
2024-01-06T12:18:09.274Z,99231.81
2024-01-06T12:20:36.949Z,99250.84
2024-01-06T12:23:07.679Z,99261.37
2024-01-06T12:25:39.974Z,99258.91
2024-01-06T12:28:09.297Z,99250.94
2024-01-06T12:30:37.476Z,99251.81
2024-01-06T12:33:05.785Z,99253.66
2024-01-06T12:35:33.783Z,99255.56
2024-01-06T12:38:03.629Z,99250.72
2024-01-06T12:40:31.224Z,99251.81
2024-01-06T12:42:59.249Z,99245.13
2024-01-06T12:45:29.077Z,99257.75
2024-01-06T12:47:56.835Z,99255.69
2024-01-06T12:50:24.782Z,99254.50
2024-01-06T12:52:52.292Z,99260.50
2024-01-06T12:55:20.015Z,99256.63
2024-01-06T12:57:48.766Z,99249.34
2024-01-06T13:00:17.609Z,99257.16
2024-01-06T13:02:45.156Z,99250.66
2024-01-06T13:05:13.412Z,99215.28
2024-01-06T13:07:41.323Z,99241.38
2024-01-06T13:10:09.639Z,99250.97
2024-01-06T13:12:37.628Z,99250.81
2024-01-06T13:15:06.788Z,99250.84
2024-01-06T13:17:34.444Z,99248.22
2024-01-06T13:20:02.395Z,99241.47
2024-01-06T13:22:30.103Z,99241.16
2024-01-06T13:24:58.077Z,99238.37
2024-01-06T13:27:28.350Z,99236.72
2024-01-06T13:29:56.000Z,99226.19
2024-01-06T13:32:23.917Z,99234.91
2024-01-06T13:34:55.491Z,99231.44
2024-01-06T13:37:23.537Z,99166.81
2024-01-06T13:39:51.173Z,99224.56
2024-01-06T13:42:19.990Z,99220.09
2024-01-06T13:44:47.676Z,99214.38
2024-01-06T13:47:15.828Z,99221.59
2024-01-06T13:49:43.751Z,99226.88
2024-01-06T13:52:11.564Z,99219.53
2024-01-06T13:54:39.444Z,99217.72
2024-01-06T13:57:07.285Z,99221.13
2024-01-06T13:59:37.962Z,99221.31
2024-01-06T14:02:08.832Z,99179.31
2024-01-06T14:04:36.899Z,99223.78
2024-01-06T14:07:05.999Z,99185.53
2024-01-06T14:09:33.669Z,99220.50
2024-01-06T14:12:01.589Z,99180.63
2024-01-06T14:14:29.074Z,99225.25
2024-01-06T14:16:56.750Z,99227.25
2024-01-06T14:19:25.131Z,99225.59
2024-01-06T14:21:52.796Z,99189.16
2024-01-06T14:24:24.737Z,99224.59
2024-01-06T14:26:54.216Z,99216.56
2024-01-06T14:29:22.254Z,99212.78
2024-01-06T14:31:50.152Z,99221.16
2024-01-06T14:34:18.231Z,99222.16
2024-01-06T14:36:49.013Z,99189.84
2024-01-06T14:39:19.842Z,99230.53
2024-01-06T14:41:48.252Z,99228.25
2024-01-06T14:44:16.840Z,99221.66
2024-01-06T14:46:44.432Z,99204.78
2024-01-06T14:49:12.396Z,99233.84
2024-01-06T14:51:39.993Z,99237.75
2024-01-06T14:54:12.437Z,99238.09
2024-01-06T14:56:41.185Z,99226.13
2024-01-06T14:59:09.664Z,99230.87
2024-01-06T15:01:37.214Z,99232.34
2024-01-06T15:04:05.382Z,99234.00
2024-01-06T15:06:33.051Z,99183.75
2024-01-06T15:09:00.628Z,99228.41
2024-01-06T15:11:28.482Z,99221.50
2024-01-06T15:13:56.031Z,99226.91
2024-01-06T15:16:23.683Z,99209.22
2024-01-06T15:18:52.688Z,99180.28
2024-01-06T15:21:24.308Z,99219.53
2024-01-06T15:23:52.305Z,99217.09
2024-01-06T15:26:24.245Z,99226.44
2024-01-06T15:28:52.323Z,99215.09
2024-01-06T15:31:19.971Z,99225.59
2024-01-06T15:33:49.072Z,99222.00
2024-01-06T15:36:17.235Z,99226.44
2024-01-06T15:38:45.003Z,99229.88
2024-01-06T15:41:12.648Z,99221.19
2024-01-06T15:43:40.537Z,99219.38
2024-01-06T15:46:08.693Z,99220.34
2024-01-06T15:48:37.560Z,99214.78
2024-01-06T15:51:05.711Z,99211.97
2024-01-06T15:53:34.721Z,99170.94
2024-01-06T15:56:02.748Z,99211.47
2024-01-06T15:58:30.771Z,99201.78
2024-01-06T16:00:58.368Z,99215.41
2024-01-06T16:03:26.288Z,99213.44
2024-01-06T16:05:54.098Z,99203.91
2024-01-06T16:08:21.732Z,99206.84
2024-01-06T16:10:49.999Z,99162.03
2024-01-06T16:13:17.749Z,99204.88
2024-01-06T16:15:47.047Z,99208.31
2024-01-06T16:18:15.102Z,99198.81
2024-01-06T16:20:42.855Z,99161.69
2024-01-06T16:23:14.867Z,99167.25
2024-01-06T16:25:43.003Z,99209.13
2024-01-06T16:28:12.917Z,99217.13
2024-01-06T16:30:41.579Z,99215.84
2024-01-06T16:33:10.139Z,99216.81
2024-01-06T16:35:38.734Z,99209.41
2024-01-06T16:38:06.368Z,99211.34
2024-01-06T16:40:34.711Z,99210.41
2024-01-06T16:43:02.423Z,99213.97
2024-01-06T16:45:30.129Z,99208.91
2024-01-06T16:47:58.226Z,99213.97
2024-01-06T16:50:25.872Z,99203.66
2024-01-06T16:52:53.578Z,99212.81
2024-01-06T16:55:21.640Z,99212.16
2024-01-06T16:57:49.180Z,99209.72
2024-01-06T17:00:19.368Z,99203.31
2024-01-06T17:02:47.277Z,99144.97
2024-01-06T17:05:15.074Z,99190.66
2024-01-06T17:07:45.816Z,99212.69
2024-01-06T17:10:17.459Z,99209.03
2024-01-06T17:12:44.985Z,99192.31
2024-01-06T17:15:14.803Z,99210.16
2024-01-06T17:17:42.828Z,99210.34
2024-01-06T17:20:11.958Z,99206.91
2024-01-06T17:22:40.034Z,99210.66
2024-01-06T17:25:14.705Z,99198.00
2024-01-06T17:27:46.497Z,99160.25
2024-01-06T17:30:16.086Z,99203.75
2024-01-06T17:32:44.286Z,99200.16
2024-01-06T17:35:12.068Z,99209.19
2024-01-06T17:37:39.590Z,99210.97
2024-01-06T17:40:09.097Z,99168.56
2024-01-06T17:42:36.791Z,99196.47
2024-01-06T17:45:07.017Z,99164.75
2024-01-06T17:47:37.081Z,99201.75
2024-01-06T17:50:06.565Z,99198.16
2024-01-06T17:52:34.745Z,99207.63
2024-01-06T17:55:03.446Z,99203.91
2024-01-06T17:57:35.874Z,99209.94
2024-01-06T18:00:05.014Z,99208.16
2024-01-06T18:02:33.797Z,99209.16
2024-01-06T18:05:02.882Z,99205.53
2024-01-06T18:07:31.745Z,99202.91
2024-01-06T18:09:59.554Z,99205.84
2024-01-06T18:12:27.482Z,99216.00
2024-01-06T18:14:55.142Z,99214.38
2024-01-06T18:17:22.762Z,99212.22
2024-01-06T18:19:51.036Z,99213.88
2024-01-06T18:22:18.659Z,99212.88
2024-01-06T18:24:46.405Z,99214.53
2024-01-06T18:27:14.253Z,99214.53
2024-01-06T18:29:41.791Z,99173.28
2024-01-06T18:32:11.408Z,99210.94
2024-01-06T18:34:43.519Z,99217.63
2024-01-06T18:37:13.312Z,99206.97
2024-01-06T18:39:41.364Z,99216.50
2024-01-06T18:42:14.967Z,99212.09
2024-01-06T18:44:43.288Z,99211.09
2024-01-06T18:47:12.873Z,99218.94
2024-01-06T18:49:40.902Z,99178.53
2024-01-06T18:52:08.900Z,99180.19
2024-01-06T18:54:42.150Z,99218.81
2024-01-06T18:57:15.062Z,99225.19
2024-01-06T18:59:42.937Z,99223.37
2024-01-06T19:02:12.381Z,99216.50
2024-01-06T19:04:40.035Z,99225.34
2024-01-06T19:07:07.705Z,99220.25
2024-01-06T19:09:35.755Z,99214.50
2024-01-06T19:12:04.366Z,99213.34
2024-01-06T19:14:34.329Z,99191.84
2024-01-06T19:17:05.753Z,99214.66
2024-01-06T19:19:35.987Z,99206.47
2024-01-06T19:22:04.469Z,99206.47
2024-01-06T19:24:36.209Z,99201.56
2024-01-06T19:27:10.781Z,99201.19
2024-01-06T19:29:44.499Z,99210.84
2024-01-06T19:32:13.133Z,99199.41
2024-01-06T19:34:42.313Z,99201.72
2024-01-06T19:37:11.048Z,99162.09
2024-01-06T19:39:39.322Z,99191.69
2024-01-06T19:42:08.244Z,99183.31
2024-01-06T19:44:36.252Z,99180.03
2024-01-06T19:47:04.756Z,99175.12
2024-01-06T19:49:33.412Z,99176.44
2024-01-06T19:52:01.128Z,99171.88
2024-01-06T19:54:29.471Z,99169.41
2024-01-06T19:56:57.135Z,99133.38
2024-01-06T19:59:24.689Z,99138.69
2024-01-06T20:01:52.902Z,99122.91
2024-01-06T20:04:20.811Z,99127.16
2024-01-06T20:06:48.596Z,99172.66
2024-01-06T20:09:16.365Z,99155.94
2024-01-06T20:11:44.210Z,99161.06
2024-01-06T20:14:11.961Z,99155.81
2024-01-06T20:16:39.858Z,99152.72
2024-01-06T20:19:07.940Z,99154.31
2024-01-06T20:21:35.946Z,99144.84
2024-01-06T20:24:05.357Z,99144.84
2024-01-06T20:26:33.442Z,99063.37
2024-01-06T20:29:01.216Z,99124.19
2024-01-06T20:31:29.220Z,99087.03
2024-01-06T20:33:57.689Z,99116.28
2024-01-06T20:36:25.660Z,99118.06
2024-01-06T20:38:53.455Z,99082.09
2024-01-06T20:41:22.460Z,99110.72
2024-01-06T20:43:50.086Z,99106.94
2024-01-06T20:46:19.726Z,99102.97
2024-01-06T20:48:48.676Z,99105.28
2024-01-06T20:51:18.849Z,99090.69
2024-01-06T20:53:47.672Z,99096.75
2024-01-06T20:56:16.200Z,99056.53
2024-01-06T20:58:46.971Z,99089.03
2024-01-06T21:01:15.445Z,99042.47
2024-01-06T21:03:43.368Z,99088.06
2024-01-06T21:06:11.796Z,99039.34
2024-01-06T21:08:40.076Z,99081.34
2024-01-06T21:11:09.348Z,99076.91
2024-01-06T21:13:37.070Z,99083.97
2024-01-06T21:16:05.427Z,99089.34
2024-01-06T21:18:33.488Z,99088.53
2024-01-06T21:21:01.623Z,99084.13
2024-01-06T21:23:39.847Z,99093.78
2024-01-06T21:26:13.034Z,99089.84
2024-01-06T21:28:41.019Z,99102.63
2024-01-06T21:31:10.244Z,99102.13
2024-01-06T21:33:38.202Z,99095.53
2024-01-06T21:36:06.188Z,99089.62
2024-01-06T21:38:33.696Z,99088.66
2024-01-06T21:41:01.340Z,99088.66
2024-01-06T21:43:29.269Z,99080.66
2024-01-06T21:45:56.853Z,99090.28
2024-01-06T21:48:24.515Z,99078.03
2024-01-06T21:50:54.355Z,99073.63
2024-01-06T21:53:22.068Z,99036.16
2024-01-06T21:55:50.405Z,99068.34
2024-01-06T21:58:18.265Z,99067.72
2024-01-06T22:00:45.909Z,99068.84
2024-01-06T22:03:13.829Z,99076.72
2024-01-06T22:05:41.601Z,99066.38
2024-01-06T22:08:09.248Z,99066.25
2024-01-06T22:10:37.046Z,99060.31
2024-01-06T22:13:04.860Z,99059.53
2024-01-06T22:15:35.981Z,99007.66
2024-01-06T22:18:04.744Z,99014.06
2024-01-06T22:20:32.395Z,99011.63
2024-01-06T22:22:59.860Z,99047.22
2024-01-06T22:25:27.637Z,99047.22
2024-01-06T22:27:55.857Z,99049.84
2024-01-06T22:30:23.798Z,99047.38
2024-01-06T22:32:51.856Z,99055.37
2024-01-06T22:35:19.432Z,99046.75
2024-01-06T22:37:47.870Z,99047.72
2024-01-06T22:40:16.990Z,99040.34
2024-01-06T22:42:44.586Z,98989.81
2024-01-06T22:45:12.214Z,99035.25
2024-01-06T22:47:40.385Z,99029.16
2024-01-06T22:50:08.413Z,99027.38
2024-01-06T22:52:36.873Z,99005.25
2024-01-06T22:55:05.973Z,99028.66
2024-01-06T22:57:33.808Z,99028.84
2024-01-06T23:00:01.530Z,99026.22
2024-01-06T23:02:29.448Z,99021.28
2024-01-06T23:04:59.299Z,99023.75
2024-01-06T23:07:26.963Z,99024.56
2024-01-06T23:09:54.870Z,98980.09
2024-01-06T23:12:22.689Z,99018.66
2024-01-06T23:14:50.356Z,99011.63
2024-01-06T23:17:18.447Z,99001.81
2024-01-06T23:19:46.544Z,99002.66
2024-01-06T23:22:14.616Z,98998.06
2024-01-06T23:24:42.551Z,98949.22
2024-01-06T23:27:10.147Z,98989.06
2024-01-06T23:29:39.373Z,98950.56
2024-01-06T23:32:07.909Z,98979.28
2024-01-06T23:34:42.282Z,98976.66
2024-01-06T23:37:11.384Z,98973.03
2024-01-06T23:39:39.210Z,98932.88
2024-01-06T23:42:09.187Z,98965.19
2024-01-06T23:44:37.189Z,98980.75
2024-01-06T23:47:04.903Z,98941.69
2024-01-06T23:49:32.578Z,98968.94
2024-01-06T23:52:00.530Z,98983.69
2024-01-06T23:54:28.204Z,98930.56
2024-01-06T23:56:56.237Z,98920.41
2024-01-06T23:59:24.024Z,98960.75
